createdAt,value
2016-04-12T00:00:47.815Z,10.34
2016-04-12T00:02:00.537Z,10.31
2016-04-12T00:03:00.556Z,10.33
2016-04-12T00:04:07.073Z,10.36
2016-04-12T00:05:13.561Z,10.36
2016-04-12T00:06:13.594Z,10.25
2016-04-12T00:07:19.238Z,10.33
2016-04-12T00:08:20.652Z,10.24
2016-04-12T00:09:47.945Z,10.23
2016-04-12T00:10:47.979Z,10.25
2016-04-12T00:12:03.184Z,10.21
2016-04-12T00:13:03.359Z,10.31
2016-04-12T00:14:15.940Z,10.33
2016-04-12T00:15:03.286Z,10.15
2016-04-12T00:16:03.289Z,10.23
2016-04-12T00:17:16.025Z,10.25
2016-04-12T00:18:03.294Z,10.24
2016-04-12T00:19:03.438Z,10.31
2016-04-12T00:20:22.549Z,10.18
2016-04-12T00:21:03.349Z,10.18
2016-04-12T00:22:29.038Z,10.18
2016-04-12T00:23:12.980Z,10.31
2016-04-12T00:24:38.657Z,10.21
2016-04-12T00:25:16.938Z,10.23
2016-04-12T00:27:19.569Z,10.18
2016-04-12T00:27:51.476Z,10.25
2016-04-12T00:28:32.293Z,10.27
2016-04-12T00:29:32.327Z,10.23
2016-04-12T00:30:32.327Z,10.15
2016-04-12T00:31:32.408Z,10.24
2016-04-12T00:32:44.954Z,10.23
2016-04-12T00:33:32.988Z,10.21
2016-04-12T00:34:32.397Z,10.25
2016-04-12T00:35:33.072Z,10.21
2016-04-12T00:36:32.434Z,10.18
2016-04-12T00:37:33.078Z,10.25
2016-04-12T00:38:45.221Z,10.21
2016-04-12T00:39:45.223Z,10.18
2016-04-12T00:40:51.711Z,10.25
2016-04-12T00:41:51.713Z,10.2
2016-04-12T00:42:58.217Z,10.17
2016-04-12T00:43:32.578Z,10.25
2016-04-12T00:44:32.580Z,10.2
2016-04-12T00:45:32.615Z,10.17
2016-04-12T00:46:32.680Z,10.17
2016-04-12T00:47:32.636Z,10.2
2016-04-12T00:48:32.653Z,10.18
2016-04-12T00:49:33.282Z,10.13
2016-04-12T00:50:32.925Z,10.2
2016-04-12T00:51:32.725Z,10.15
2016-04-12T00:52:32.727Z,10.27
2016-04-12T00:53:39.089Z,10.18
2016-04-12T00:54:32.764Z,10.24
2016-04-12T00:55:32.845Z,10.1
2016-04-12T00:56:39.097Z,10.07
2016-04-12T00:57:39.162Z,10.12
2016-04-12T00:58:32.838Z,10.15
2016-04-12T00:59:52.152Z,10.1
2016-04-12T01:00:32.873Z,10.17
2016-04-12T01:01:32.893Z,10.17
2016-04-12T01:02:33.176Z,10.12
2016-04-12T01:03:32.944Z,10.13
2016-04-12T01:04:33.040Z,10.03
2016-04-12T01:05:39.293Z,10.09
2016-04-12T01:06:33.062Z,10.06
2016-04-12T01:07:33.018Z,10.18
2016-04-12T01:08:39.395Z,10.06
2016-04-12T01:09:33.039Z,10.07
2016-04-12T01:10:52.276Z,10.03
2016-04-12T01:11:39.341Z,10.09
2016-04-12T01:12:33.093Z,10.09
2016-04-12T01:13:33.111Z,10.07
2016-04-12T01:14:33.161Z,10.03
2016-04-12T01:15:39.430Z,10.03
2016-04-12T01:16:33.167Z,10.07
2016-04-12T01:17:52.388Z,10.09
2016-04-12T01:18:39.484Z,10.09
2016-04-12T01:19:58.925Z,10.12
2016-04-12T01:20:33.271Z,10.12
2016-04-12T01:21:33.383Z,10.12
2016-04-12T01:22:33.277Z,10.07
2016-04-12T01:23:39.670Z,10.1
2016-04-12T01:24:33.313Z,10.03
2016-04-12T01:25:33.347Z,10.1
2016-04-12T01:26:39.647Z,10.09
2016-04-12T01:27:34.805Z,10.09
2016-04-12T01:28:52.590Z,10.1
2016-04-12T01:29:36.436Z,10.05
2016-04-12T01:30:33.438Z,10.1
2016-04-12T01:31:46.191Z,10.05
2016-04-12T01:32:46.210Z,10.05
2016-04-12T01:33:52.665Z,10.06
2016-04-12T01:34:52.699Z,10.07
2016-04-12T01:35:59.202Z,10.06
2016-04-12T01:36:33.532Z,10.06
2016-04-12T01:37:33.551Z,9.97
2016-04-12T01:39:04.882Z,10.06
2016-04-12T01:39:33.572Z,10.03
2016-04-12T01:40:33.606Z,10.05
2016-04-12T01:41:33.625Z,9.95
2016-04-12T01:42:33.627Z,9.97
2016-04-12T01:43:33.662Z,10.03
2016-04-12T01:44:46.414Z,9.97
2016-04-12T01:45:33.792Z,9.9
2016-04-12T01:46:52.934Z,9.95
2016-04-12T01:47:33.766Z,9.94
2016-04-12T01:48:34.206Z,9.95
2016-04-12T01:49:33.771Z,9.99
2016-04-12T01:50:33.789Z,9.88
2016-04-12T01:51:33.823Z,9.9
2016-04-12T01:52:33.825Z,9.88
2016-04-12T01:53:33.844Z,9.87
2016-04-12T01:54:33.863Z,9.88
2016-04-12T01:55:33.897Z,9.9
2016-04-12T01:56:33.884Z,9.8
2016-04-12T01:57:33.918Z,9.84
2016-04-12T01:58:40.201Z,9.84
2016-04-12T01:59:33.939Z,9.8
2016-04-12T02:00:40.426Z,9.88
2016-04-12T02:01:33.991Z,9.84
2016-04-12T02:02:34.057Z,9.8
2016-04-12T02:03:34.043Z,9.74
2016-04-12T02:04:40.312Z,9.8
2016-04-12T02:05:34.064Z,9.76
2016-04-12T02:06:34.082Z,9.72
2016-04-12T02:07:34.085Z,9.74
2016-04-12T02:08:40.368Z,9.72
2016-04-12T02:09:40.387Z,9.64
2016-04-12T02:10:34.155Z,9.67
2016-04-12T02:11:46.736Z,9.55
2016-04-12T02:12:34.208Z,9.62
2016-04-12T02:13:53.554Z,9.63
2016-04-12T02:14:34.228Z,9.59
2016-04-12T02:15:34.247Z,9.58
2016-04-12T02:16:34.265Z,9.58
2016-04-12T02:17:34.284Z,9.59
2016-04-12T02:18:47.053Z,9.45
2016-04-12T02:19:34.305Z,9.55
2016-04-12T02:20:53.542Z,9.42
2016-04-12T02:21:34.358Z,9.52
2016-04-12T02:23:05.672Z,9.52
2016-04-12T02:23:35.800Z,9.45
2016-04-12T02:24:34.459Z,9.49
2016-04-12T02:25:37.446Z,9.47
2016-04-12T02:26:40.699Z,9.47
2016-04-12T02:27:34.435Z,9.49
2016-04-12T02:28:34.485Z,9.49
2016-04-12T02:29:40.863Z,9.48
2016-04-12T02:30:34.506Z,9.42
2016-04-12T02:31:47.290Z,9.45
2016-04-12T02:32:40.808Z,9.48
2016-04-12T02:33:53.765Z,9.4
2016-04-12T02:34:34.580Z,9.44
2016-04-12T02:35:34.614Z,9.48
2016-04-12T02:36:34.632Z,9.31
2016-04-12T02:37:34.651Z,9.37
2016-04-12T02:38:34.653Z,9.39
2016-04-12T02:39:47.484Z,9.34
2016-04-12T02:40:47.409Z,9.45
2016-04-12T02:41:34.692Z,9.47
2016-04-12T02:42:34.710Z,9.39
2016-04-12T02:43:34.729Z,9.37
2016-04-12T02:44:35.576Z,9.37
2016-04-12T02:45:35.375Z,9.34
2016-04-12T02:46:34.784Z,9.36
2016-04-12T02:47:47.552Z,9.27
2016-04-12T02:48:34.961Z,9.33
2016-04-12T02:49:47.573Z,9.31
2016-04-12T02:50:34.888Z,9.29
2016-04-12T02:52:00.547Z,9.33
2016-04-12T02:52:34.909Z,9.26
2016-04-12T02:54:00.599Z,9.22
2016-04-12T02:54:44.492Z,9.21
2016-04-12T02:55:44.495Z,9.22
2016-04-12T02:56:50.810Z,9.15
2016-04-12T02:57:44.532Z,9.13
2016-04-12T02:58:57.377Z,9.15
2016-04-12T02:59:44.584Z,9.13
2016-04-12T03:00:44.618Z,9.08
2016-04-12T03:01:44.621Z,9.12
2016-04-12T03:02:44.623Z,9.09
2016-04-12T03:03:44.641Z,9.12
2016-04-12T03:04:44.660Z,9.08
2016-04-12T03:05:44.709Z,9.13
2016-04-12T03:06:57.446Z,9.11
2016-04-12T03:07:44.731Z,9.03
2016-04-12T03:09:03.936Z,9.05
2016-04-12T03:09:51.626Z,9.02
2016-04-12T03:10:44.785Z,8.97
2016-04-12T03:11:44.820Z,9.03
2016-04-12T03:12:44.854Z,8.96
2016-04-12T03:13:44.825Z,9.05
2016-04-12T03:14:44.828Z,9.02
2016-04-12T03:15:45.470Z,9.05
2016-04-12T03:16:44.864Z,9.02
2016-04-12T03:17:44.929Z,8.9
2016-04-12T03:18:57.650Z,9.05
2016-04-12T03:19:44.935Z,9.11
2016-04-12T03:20:44.938Z,9.03
2016-04-12T03:21:57.690Z,9.03
2016-04-12T03:22:45.068Z,9.09
2016-04-12T03:23:45.024Z,9
2016-04-12T03:24:45.120Z,9.03
2016-04-12T03:25:45.045Z,9
2016-04-12T03:26:45.157Z,9.09
2016-04-12T03:27:45.660Z,9
2016-04-12T03:28:51.349Z,8.97
2016-04-12T03:29:45.711Z,9.09
2016-04-12T03:30:45.121Z,9.09
2016-04-12T03:31:46.560Z,8.99
2016-04-12T03:33:10.844Z,9.02
2016-04-12T03:33:54.707Z,9.09
2016-04-12T03:34:54.741Z,8.97
2016-04-12T03:36:01.009Z,9.13
2016-04-12T03:37:01.637Z,9.08
2016-04-12T03:37:55.390Z,9.05
2016-04-12T03:38:54.799Z,9
2016-04-12T03:39:54.833Z,9.08
2016-04-12T03:41:01.085Z,9.05
2016-04-12T03:42:01.229Z,9.05
2016-04-12T03:43:07.621Z,9.05
2016-04-12T03:44:07.656Z,9.05
2016-04-12T03:44:54.924Z,9.08
2016-04-12T03:46:20.614Z,9.05
2016-04-12T03:47:07.679Z,9.03
2016-04-12T03:47:55.025Z,9.03
2016-04-12T03:49:14.184Z,8.97
2016-04-12T03:49:58.062Z,9.02
2016-04-12T03:50:58.096Z,9.03
2016-04-12T03:52:10.833Z,9.03
2016-04-12T03:53:04.586Z,9.09
2016-04-12T03:54:23.792Z,9
2016-04-12T03:54:58.248Z,9.05
2016-04-12T03:57:13.206Z,8.99
2016-04-12T03:58:13.224Z,8.97
2016-04-12T03:59:19.572Z,9
2016-04-12T04:00:13.855Z,8.96
2016-04-12T04:01:32.467Z,8.97
2016-04-12T04:02:13.266Z,9
2016-04-12T04:03:38.975Z,8.97
2016-04-12T04:04:22.788Z,9.03
2016-04-12T04:05:22.869Z,9.12
2016-04-12T04:06:35.623Z,9.08
2016-04-12T04:07:22.920Z,8.97
2016-04-12T04:08:42.130Z,9.13
2016-04-12T04:09:25.989Z,9.11
2016-04-12T04:10:26.007Z,9.09
2016-04-12T04:11:38.762Z,9.05
2016-04-12T04:12:38.765Z,9.09
2016-04-12T04:13:26.062Z,9.05
2016-04-12T04:14:26.080Z,9.13
2016-04-12T04:15:45.304Z,9.09
2016-04-12T04:16:29.179Z,9.05
2016-04-12T04:17:48.576Z,9.05
2016-04-12T04:18:29.326Z,9.09
2016-04-12T04:19:29.250Z,9.02
2016-04-12T04:20:41.989Z,8.99
2016-04-12T04:21:42.023Z,8.99
2016-04-12T04:22:48.589Z,9
2016-04-12T04:23:48.513Z,9
2016-04-12T04:25:00.688Z,9.11
2016-04-12T04:25:38.909Z,9.15
2016-04-12T04:27:10.256Z,9.11
2016-04-12T04:27:42.024Z,9.12
2016-04-12T04:29:13.339Z,9.11
2016-04-12T04:29:54.795Z,9.05
2016-04-12T04:30:42.079Z,9.12
2016-04-12T04:32:01.285Z,9.12
2016-04-12T04:32:42.038Z,9.13
2016-04-12T04:34:07.790Z,9.11
2016-04-12T04:34:54.871Z,9.08
2016-04-12T04:36:14.060Z,9.12
2016-04-12T04:36:57.971Z,9
2016-04-12T04:37:57.973Z,9
2016-04-12T04:38:57.976Z,9.11
2016-04-12T04:39:58.010Z,9
2016-04-12T04:41:04.871Z,9.12
2016-04-12T04:42:10.749Z,9.08
2016-04-12T04:43:10.940Z,9
2016-04-12T04:43:58.067Z,9.08
2016-04-12T04:45:23.742Z,9.09
2016-04-12T04:46:20.354Z,9.09
2016-04-12T04:47:30.122Z,9.09
2016-04-12T04:49:32.518Z,9.11
2016-04-12T04:49:45.068Z,9.11
2016-04-12T04:50:45.117Z,9.13
2016-04-12T04:51:45.729Z,9.13
2016-04-12T04:52:45.747Z,9.16
2016-04-12T04:53:45.157Z,9.18
2016-04-12T04:54:57.909Z,9.22
2016-04-12T04:55:45.803Z,9.12
2016-04-12T04:57:10.883Z,9.12
2016-04-12T04:57:45.213Z,9.19
2016-04-12T04:59:16.639Z,9.16
2016-04-12T04:59:45.266Z,9.16
2016-04-12T05:00:45.331Z,9.13
2016-04-12T05:01:45.288Z,9.18
2016-04-12T05:02:45.383Z,9.22
2016-04-12T05:03:58.058Z,9.18
2016-04-12T05:04:58.092Z,9.15
2016-04-12T05:06:04.564Z,9.16
2016-04-12T05:07:04.457Z,9.19
2016-04-12T05:08:16.710Z,9.15
2016-04-12T05:09:26.135Z,9.22
2016-04-12T05:10:13.388Z,9.15
2016-04-12T05:11:32.634Z,9.21
2016-04-12T05:12:42.280Z,9.21
2016-04-12T05:13:29.359Z,9.21
2016-04-12T05:15:15.034Z,9.21
2016-04-12T05:15:46.851Z,9.15
2016-04-12T05:17:33.853Z,9.26
2016-04-12T05:18:27.668Z,9.24
2016-04-12T05:19:43.564Z,9.26
2016-04-12T05:20:33.986Z,9.31
2016-04-12T05:21:53.507Z,9.36
2016-04-12T05:22:27.741Z,9.27
2016-04-12T05:23:59.075Z,9.45
2016-04-12T05:24:37.325Z,9.26
2016-04-12T05:26:08.644Z,9.37
2016-04-12T05:26:52.583Z,9.26
2016-04-12T05:28:18.242Z,9.4
2016-04-12T05:29:33.510Z,9.36
2016-04-12T05:30:24.450Z,9.37
2016-04-12T05:32:08.721Z,9.39
2016-04-12T05:32:34.018Z,9.42
2016-04-12T05:35:02.152Z,9.4
2016-04-12T05:35:36.496Z,9.47
2016-04-12T05:36:36.498Z,9.47
2016-04-12T05:37:36.515Z,9.42
2016-04-12T05:38:36.551Z,9.47
2016-04-12T05:39:36.537Z,9.52
2016-04-12T05:40:36.571Z,9.58
2016-04-12T05:41:49.311Z,9.52
2016-04-12T05:42:42.892Z,9.63
2016-04-12T05:43:55.816Z,9.55
2016-04-12T05:44:49.382Z,9.63
2016-04-12T05:46:02.447Z,9.56
2016-04-12T05:46:55.903Z,9.56
2016-04-12T05:48:17.467Z,9.54
2016-04-12T05:49:11.158Z,9.59
2016-04-12T05:50:23.911Z,9.66
2016-04-12T05:51:23.928Z,9.7
2016-04-12T05:52:30.416Z,9.67
2016-04-12T05:53:39.969Z,9.76
2016-04-12T05:55:42.599Z,9.76
2016-04-12T05:56:14.349Z,9.69
2016-04-12T05:56:55.164Z,9.7
2016-04-12T05:58:20.885Z,9.72
2016-04-12T05:59:30.450Z,9.76
2016-04-12T06:00:04.797Z,9.76
2016-04-12T06:01:36.112Z,9.74
2016-04-12T06:02:14.365Z,9.74
2016-04-12T06:03:13.618Z,9.67
2016-04-12T06:04:27.121Z,9.72
2016-04-12T06:05:14.404Z,9.73
2016-04-12T06:06:33.625Z,9.85
2016-04-12T06:07:21.332Z,9.72
2016-04-12T06:08:39.993Z,9.84
2016-04-12T06:10:49.810Z,9.82
2016-04-12T06:13:30.628Z,9.84
2016-04-12T06:14:04.959Z,9.81
2016-04-12T06:16:20.246Z,9.95
2016-04-12T06:17:20.248Z,9.91
2016-04-12T06:19:56.694Z,10.05
2016-04-12T06:20:31.038Z,10
2016-04-12T06:21:31.072Z,9.97
2016-04-12T06:22:53.359Z,9.99
2016-04-12T06:24:40.770Z,10.09
2016-04-12T06:25:40.680Z,10.05
2016-04-12T06:26:53.525Z,10.2
2016-04-12T06:27:41.340Z,10.23
2016-04-12T06:29:00.000Z,10.15
2016-04-12T06:29:40.752Z,10.24
2016-04-12T06:31:06.443Z,10.17
2016-04-12T06:31:44.758Z,10.23
2016-04-12T06:33:16.073Z,10.23
2016-04-12T06:33:47.888Z,10.15
2016-04-12T06:34:47.875Z,10.23
2016-04-12T06:35:48.097Z,10.24
2016-04-12T06:36:47.896Z,10.23
2016-04-12T06:38:00.649Z,10.18
2016-04-12T06:38:47.933Z,10.15
2016-04-12T06:40:07.155Z,10.28
2016-04-12T06:41:16.813Z,10.25
2016-04-12T06:43:00.709Z,10.33
2016-04-12T06:44:20.009Z,10.43
2016-04-12T06:45:13.496Z,10.41
2016-04-12T06:46:00.764Z,10.49
2016-04-12T06:47:20.220Z,10.62
2016-04-12T06:48:04.254Z,10.62
2016-04-12T06:49:23.366Z,10.68
2016-04-12T06:50:19.994Z,10.67
2016-04-12T06:51:07.247Z,10.67
2016-04-12T06:52:07.281Z,10.76
2016-04-12T06:53:07.408Z,10.75
2016-04-12T06:54:07.333Z,10.77
2016-04-12T06:55:20.117Z,10.76
2016-04-12T06:56:13.620Z,10.79
2016-04-12T06:57:07.434Z,10.86
2016-04-12T06:58:26.609Z,10.77
2016-04-12T06:59:10.533Z,10.75
2016-04-12T07:01:20.116Z,10.83
2016-04-12T07:02:20.135Z,10.97
2016-04-12T07:03:20.169Z,10.95
2016-04-12T07:04:20.172Z,11.01
2016-04-12T07:05:39.409Z,11.13
2016-04-12T07:06:20.333Z,11.16
2016-04-12T07:07:20.243Z,11.33
2016-04-12T07:08:20.338Z,11.53
2016-04-12T07:09:20.279Z,11.78
2016-04-12T07:10:21.829Z,12
2016-04-12T07:11:20.300Z,12.08
2016-04-12T07:12:33.084Z,12.05
2016-04-12T07:13:33.102Z,12.11
2016-04-12T07:14:33.152Z,12.07
2016-04-12T07:15:39.767Z,11.96
2016-04-12T07:16:23.610Z,12.33
2016-04-12T07:17:23.629Z,12.84
2016-04-12T07:18:23.647Z,13.83
2016-04-12T07:19:29.947Z,15.15
2016-04-12T07:20:23.700Z,15.44
2016-04-12T07:21:23.718Z,16.05
2016-04-12T07:22:36.501Z,16.55
2016-04-12T07:23:24.379Z,16.91
2016-04-12T07:24:23.897Z,17.01
2016-04-12T07:25:36.556Z,16.89
2016-04-12T07:26:23.841Z,16.72
2016-04-12T07:27:23.859Z,16.97
2016-04-12T07:28:23.924Z,17.09
2016-04-12T07:29:23.911Z,17.04
2016-04-12T07:30:30.180Z,16.92
2016-04-12T07:31:23.947Z,17.37
2016-04-12T07:32:36.763Z,18.27
2016-04-12T07:33:24.016Z,18.05
2016-04-12T07:34:24.003Z,17.38
2016-04-12T07:35:30.318Z,16.72
2016-04-12T07:36:30.351Z,15.78
2016-04-12T07:37:36.839Z,15.39
2016-04-12T07:38:24.107Z,15.78
2016-04-12T07:39:24.141Z,16.54
2016-04-12T07:40:24.175Z,17.09
2016-04-12T07:41:30.474Z,17.24
2016-04-12T07:42:30.512Z,17.53
2016-04-12T07:43:43.551Z,17.59
2016-04-12T07:44:25.770Z,17.78
2016-04-12T07:46:34.012Z,17.93
2016-04-12T07:47:34.139Z,17.54
2016-04-12T07:48:40.424Z,17.93
2016-04-12T07:49:34.178Z,18.26
2016-04-12T07:50:46.984Z,17.84
2016-04-12T07:51:34.297Z,17.12
2016-04-12T07:52:34.441Z,16.43
2016-04-12T07:53:34.356Z,15.59
2016-04-12T07:54:34.380Z,15.25
2016-04-12T07:55:34.420Z,14.94
2016-04-12T07:56:34.444Z,14.78
2016-04-12T07:57:34.469Z,14.41
2016-04-12T07:58:40.771Z,14.07
2016-04-12T07:59:34.557Z,13.86
2016-04-12T08:00:47.285Z,13.65
2016-04-12T08:01:34.582Z,13.6
2016-04-12T08:02:34.587Z,13.68
2016-04-12T08:03:34.638Z,13.87
2016-04-12T08:04:34.657Z,13.95
2016-04-12T08:05:34.770Z,13.97
2016-04-12T08:06:40.976Z,13.87
2016-04-12T08:07:34.839Z,13.79
2016-04-12T08:08:34.769Z,13.95
2016-04-12T08:09:47.508Z,14.04
2016-04-12T08:10:34.790Z,14.16
2016-04-12T08:11:47.562Z,14.23
2016-04-12T08:12:41.140Z,14.2
2016-04-12T08:13:54.072Z,14.2
2016-04-12T08:14:34.869Z,14.25
2016-04-12T08:16:44.472Z,14.12
2016-04-12T08:18:54.038Z,13.94
2016-04-12T08:19:54.136Z,13.97
2016-04-12T08:21:09.310Z,14.16
2016-04-12T08:22:09.328Z,14.36
2016-04-12T08:23:15.643Z,14.45
2016-04-12T08:24:15.647Z,14.38
2016-04-12T08:25:09.399Z,14.45
2016-04-12T08:26:09.651Z,14.37
2016-04-12T08:27:09.451Z,14.53
2016-04-12T08:28:28.657Z,14.71
2016-04-12T08:29:09.488Z,14.67
2016-04-12T08:30:28.725Z,14.62
2016-04-12T08:31:15.806Z,14.62
2016-04-12T08:32:28.762Z,14.79
2016-04-12T08:33:09.607Z,14.85
2016-04-12T08:34:28.798Z,15.04
2016-04-12T08:35:22.363Z,15.14
2016-04-12T08:36:35.320Z,15.15
2016-04-12T08:37:39.228Z,14.99
2016-04-12T08:38:39.262Z,14.81
2016-04-12T08:39:45.018Z,14.53
2016-04-12T08:40:13.612Z,14.71
2016-04-12T08:41:13.661Z,14.9
2016-04-12T08:42:26.414Z,15.11
2016-04-12T08:43:13.714Z,15.3
2016-04-12T08:44:32.919Z,15.5
2016-04-12T08:45:13.734Z,15.62
2016-04-12T08:46:39.425Z,15.72
2016-04-12T08:47:23.567Z,15.66
2016-04-12T08:48:23.805Z,15.39
2016-04-12T08:49:29.839Z,15.23
2016-04-12T08:50:29.903Z,15.17
2016-04-12T08:51:36.328Z,15.25
2016-04-12T08:52:23.863Z,15.37
2016-04-12T08:53:42.836Z,15.52
2016-04-12T08:54:23.664Z,15.65
2016-04-12T08:55:23.714Z,15.8
2016-04-12T08:56:23.717Z,16.02
2016-04-12T08:57:55.035Z,16.21
2016-04-12T08:58:39.097Z,16.25
2016-04-12T08:59:39.053Z,16.39
2016-04-12T09:00:39.165Z,16.54
2016-04-12T09:01:39.074Z,16.61
2016-04-12T09:02:39.718Z,16.36
2016-04-12T09:03:51.863Z,16.43
2016-04-12T09:04:51.928Z,16.49
2016-04-12T09:05:58.368Z,16.57
2016-04-12T09:06:42.243Z,16.62
2016-04-12T09:07:42.293Z,16.64
2016-04-12T09:08:48.991Z,16.79
2016-04-12T09:09:42.350Z,16.91
2016-04-12T09:11:01.543Z,16.94
2016-04-12T09:11:42.968Z,16.94
2016-04-12T09:13:08.080Z,16.79
2016-04-12T09:13:51.973Z,16.73
2016-04-12T09:16:07.775Z,16.59
2016-04-12T09:17:07.809Z,16.83
2016-04-12T09:18:20.547Z,16.91
2016-04-12T09:19:07.877Z,16.89
2016-04-12T09:20:07.896Z,16.86
2016-04-12T09:21:20.726Z,16.89
2016-04-12T09:22:14.197Z,16.97
2016-04-12T09:23:08.013Z,17.1
2016-04-12T09:24:27.188Z,17.04
2016-04-12T09:25:09.471Z,17.14
2016-04-12T09:26:08.021Z,17.13
2016-04-12T09:28:48.904Z,17.23
2016-04-12T09:29:23.248Z,17.24
2016-04-12T09:30:23.266Z,17.24
2016-04-12T09:31:23.316Z,17.34
2016-04-12T09:32:23.334Z,17.31
2016-04-12T09:33:24.087Z,17.23
2016-04-12T09:34:36.090Z,17.19
2016-04-12T09:35:23.405Z,17.17
2016-04-12T09:36:42.610Z,17.14
2016-04-12T09:37:24.035Z,17.17
2016-04-12T09:38:54.759Z,17.22
2016-04-12T09:39:36.259Z,17.23
2016-04-12T09:40:23.512Z,17.17
2016-04-12T09:41:23.515Z,17.01
2016-04-12T09:42:23.564Z,16.86
2016-04-12T09:43:23.598Z,16.66
2016-04-12T09:44:23.491Z,16.61
2016-04-12T09:45:22.994Z,16.62
2016-04-12T09:46:36.450Z,16.49
2016-04-12T09:47:23.781Z,16.28
2016-04-12T09:48:43.002Z,16.59
2016-04-12T09:49:24.067Z,16.5
2016-04-12T09:50:49.432Z,16.79
2016-04-12T09:51:23.838Z,16.97
2016-04-12T09:52:55.093Z,17.27
2016-04-12T09:53:33.327Z,17.27
2016-04-12T09:55:04.661Z,17.42
2016-04-12T09:55:33.380Z,17.53
2016-04-12T09:57:04.698Z,17.75
2016-04-12T09:57:46.373Z,17.82
2016-04-12T09:58:33.451Z,17.98
2016-04-12T09:59:52.691Z,17.88
2016-04-12T10:00:33.535Z,17.9
2016-04-12T10:02:31.102Z,17.78
2016-04-12T10:02:43.821Z,17.66
2016-04-12T10:03:43.761Z,17.53
2016-04-12T10:04:43.951Z,17.6
2016-04-12T10:05:56.550Z,17.69
2016-04-12T10:06:50.179Z,17.75
2016-04-12T10:07:43.944Z,17.8
2016-04-12T10:08:43.931Z,17.88
2016-04-12T10:10:03.123Z,17.75
2016-04-12T10:10:50.033Z,17.75
2016-04-12T10:12:09.723Z,17.66
2016-04-12T10:12:47.959Z,17.79
2016-04-12T10:15:03.230Z,18.13
2016-04-12T10:16:03.234Z,18.16
2016-04-12T10:17:03.877Z,18.3
2016-04-12T10:18:03.411Z,18.37
2016-04-12T10:19:10.225Z,18.37
2016-04-12T10:20:03.463Z,18.43
2016-04-12T10:21:04.778Z,18.28
2016-04-12T10:22:16.141Z,18.36
2016-04-12T10:23:03.409Z,18.39
2016-04-12T10:24:03.458Z,18.51
2016-04-12T10:25:16.210Z,18.6
2016-04-12T10:26:16.229Z,18.81
2016-04-12T10:27:03.513Z,18.92
2016-04-12T10:28:22.735Z,19.35
2016-04-12T10:29:03.565Z,19.64
2016-04-12T10:30:34.896Z,20.17
2016-04-12T10:31:09.883Z,20.36
2016-04-12T10:32:03.620Z,20.6
2016-04-12T10:33:09.935Z,20.8
2016-04-12T10:34:03.688Z,20.7
2016-04-12T10:35:16.456Z,20.56
2016-04-12T10:36:05.210Z,20.63
2016-04-12T10:37:29.431Z,20.59
2016-04-12T10:38:16.512Z,20.36
2016-04-12T10:39:03.795Z,20.17
2016-04-12T10:40:23.157Z,19.87
2016-04-12T10:41:03.847Z,19.84
2016-04-12T10:42:29.569Z,19.63
2016-04-12T10:43:07.823Z,19.64
2016-04-12T10:44:07.825Z,19.62
2016-04-12T10:45:07.890Z,19.55
2016-04-12T10:47:23.098Z,19.57
2016-04-12T10:48:23.086Z,19.6
2016-04-12T10:49:29.386Z,19.56
2016-04-12T10:50:29.419Z,19.55
2016-04-12T10:51:24.577Z,19.59
2016-04-12T10:52:23.190Z,19.63
2016-04-12T10:53:26.239Z,19.71
2016-04-12T10:54:24.649Z,19.59
2016-04-12T10:55:36.011Z,19.32
2016-04-12T10:56:23.310Z,19.37
2016-04-12T10:57:42.328Z,19.19
2016-04-12T10:58:24.205Z,19.17
2016-04-12T10:59:49.040Z,19.12
2016-04-12T11:00:23.399Z,19.01
2016-04-12T11:01:23.573Z,18.97
2016-04-12T11:02:23.466Z,19
2016-04-12T11:03:36.219Z,18.98
2016-04-12T11:04:23.503Z,19.01
2016-04-12T11:05:48.477Z,18.88
2016-04-12T11:06:36.306Z,18.82
2016-04-12T11:07:23.573Z,18.63
2016-04-12T11:08:23.623Z,18.52
2016-04-12T11:09:24.236Z,18.45
2016-04-12T11:10:23.645Z,18.41
2016-04-12T11:11:31.365Z,18.18
2016-04-12T11:12:23.728Z,18.13
2016-04-12T11:13:23.745Z,18.09
2016-04-12T11:14:23.765Z,18.03
2016-04-12T11:15:23.798Z,18.15
2016-04-12T11:16:30.286Z,18.18
2016-04-12T11:17:24.444Z,18.13
2016-04-12T11:18:30.353Z,18.09
2016-04-12T11:19:36.622Z,18.11
2016-04-12T11:20:23.968Z,17.98
2016-04-12T11:21:23.908Z,17.95
2016-04-12T11:22:23.958Z,17.95
2016-04-12T11:23:36.742Z,17.93
2016-04-12T11:24:24.214Z,17.94
2016-04-12T11:25:43.232Z,17.95
2016-04-12T11:26:39.875Z,17.97
2016-04-12T11:27:46.346Z,18.02
2016-04-12T11:28:27.224Z,17.94
2016-04-12T11:29:46.274Z,17.86
2016-04-12T11:30:27.199Z,17.97
2016-04-12T11:31:27.342Z,17.98
2016-04-12T11:32:27.312Z,18.12
2016-04-12T11:33:40.066Z,18.48
2016-04-12T11:34:27.350Z,18.58
2016-04-12T11:35:27.368Z,18.83
2016-04-12T11:36:27.355Z,18.98
2016-04-12T11:37:40.139Z,19.32
2016-04-12T11:38:33.673Z,19.6
2016-04-12T11:39:27.440Z,19.97
2016-04-12T11:40:27.459Z,20.33
2016-04-12T11:41:27.493Z,20.6
2016-04-12T11:42:27.495Z,20.74
2016-04-12T11:43:40.295Z,20.93
2016-04-12T11:44:27.580Z,20.9
2016-04-12T11:45:27.692Z,20.93
2016-04-12T11:46:27.616Z,20.74
2016-04-12T11:47:40.416Z,20.59
2016-04-12T11:48:28.294Z,20.3
2016-04-12T11:49:27.687Z,20.07
2016-04-12T11:50:27.720Z,20.11
2016-04-12T11:51:28.052Z,20.17
2016-04-12T11:52:34.022Z,20.14
2016-04-12T11:53:28.510Z,20.22
2016-04-12T11:54:40.575Z,20.22
2016-04-12T11:55:28.047Z,20.29
2016-04-12T11:56:47.096Z,20.48
2016-04-12T11:57:27.943Z,20.52
2016-04-12T11:59:43.120Z,20.42
2016-04-12T12:00:43.139Z,20.32
2016-04-12T12:01:43.172Z,20.14
2016-04-12T12:02:43.207Z,20.04
2016-04-12T12:03:55.946Z,20.1
2016-04-12T12:04:43.258Z,20.18
2016-04-12T12:06:02.529Z,20.32
2016-04-12T12:06:43.342Z,20.21
2016-04-12T12:08:14.691Z,19.92
2016-04-12T12:08:58.568Z,19.48
2016-04-12T12:09:58.618Z,19.19
2016-04-12T12:10:58.480Z,18.73
2016-04-12T12:12:11.467Z,18.53
2016-04-12T12:13:04.971Z,18.48
2016-04-12T12:14:17.926Z,18.28
2016-04-12T12:15:17.912Z,18.26
2016-04-12T12:16:30.056Z,18.33
2016-04-12T12:17:27.278Z,18.16
2016-04-12T12:18:39.625Z,17.98
2016-04-12T12:19:21.034Z,17.97
2016-04-12T12:20:08.380Z,18.08
2016-04-12T12:21:24.179Z,18.21
2016-04-12T12:23:33.169Z,18.26
2016-04-12T12:24:33.203Z,18.43
2016-04-12T12:25:39.472Z,18.57
2016-04-12T12:26:39.521Z,18.6
2016-04-12T12:27:45.977Z,18.61
2016-04-12T12:28:52.480Z,18.64
2016-04-12T12:30:02.125Z,18.73
2016-04-12T12:31:02.066Z,18.81
2016-04-12T12:32:08.568Z,18.79
2016-04-12T12:33:08.586Z,18.79
2016-04-12T12:34:14.933Z,18.83
2016-04-12T12:35:21.388Z,18.73
2016-04-12T12:36:02.204Z,18.73
2016-04-12T12:38:11.772Z,18.66
2016-04-12T12:39:31.009Z,18.88
2016-04-12T12:40:12.527Z,19.09
2016-04-12T12:41:37.561Z,19.16
2016-04-12T12:42:22.860Z,19.35
2016-04-12T12:44:32.304Z,19.72
2016-04-12T12:45:45.213Z,20.08
2016-04-12T12:46:26.200Z,20.17
2016-04-12T12:47:51.764Z,20.49
2016-04-12T12:48:35.673Z,20.44
2016-04-12T12:49:54.913Z,20.6
2016-04-12T12:51:04.510Z,20.6
2016-04-12T12:51:38.854Z,20.78
2016-04-12T12:53:38.858Z,20.8
2016-04-12T12:54:38.924Z,20.9
2016-04-12T12:55:51.661Z,21
2016-04-12T12:56:51.695Z,21.05
2016-04-12T12:57:38.994Z,21.04
2016-04-12T12:58:39.013Z,21.15
2016-04-12T12:59:45.313Z,21.05
2016-04-12T13:00:39.065Z,21.1
2016-04-12T13:01:39.099Z,20.77
2016-04-12T13:02:52.274Z,20.83
2016-04-12T13:03:45.401Z,20.77
2016-04-12T13:04:58.360Z,20.77
2016-04-12T13:05:42.219Z,20.8
2016-04-12T13:07:07.990Z,20.88
2016-04-12T13:07:48.552Z,20.88
2016-04-12T13:09:13.638Z,20.5
2016-04-12T13:09:42.342Z,20.37
2016-04-12T13:11:57.569Z,20.36
2016-04-12T13:12:57.588Z,20.21
2016-04-12T13:13:59.059Z,20.27
2016-04-12T13:14:57.749Z,20.33
2016-04-12T13:15:57.673Z,20.18
2016-04-12T13:16:57.693Z,20.18
2016-04-12T13:17:57.726Z,20.14
2016-04-12T13:18:57.745Z,19.79
2016-04-12T13:19:57.763Z,19.56
2016-04-12T13:20:57.813Z,19.63
2016-04-12T13:22:10.612Z,19.78
2016-04-12T13:22:57.817Z,19.87
2016-04-12T13:24:17.071Z,20.1
2016-04-12T13:25:10.651Z,20.1
2016-04-12T13:26:29.248Z,19.64
2016-04-12T13:27:01.359Z,19.71
2016-04-12T13:29:14.208Z,19.79
2016-04-12T13:30:01.415Z,19.62
2016-04-12T13:31:20.761Z,19.85
2016-04-12T13:32:30.451Z,19.78
2016-04-12T13:33:14.328Z,19.94
2016-04-12T13:34:13.613Z,20.32
2016-04-12T13:36:40.212Z,20.44
2016-04-12T13:37:14.449Z,20.53
2016-04-12T13:39:20.766Z,20.3
2016-04-12T13:40:14.535Z,20.1
2016-04-12T13:41:14.538Z,19.89
2016-04-12T13:42:27.306Z,20.18
2016-04-12T13:43:14.839Z,20.34
2016-04-12T13:44:40.700Z,20.59
2016-04-12T13:45:16.063Z,20.53
2016-04-12T13:47:17.328Z,20.27